Time;durP1;ratioP1;P1;durP2;ratioP2;P2;SDS_P1;SDS_P2;PMS_P1;PMS_P2;Temp;Humidity;BMP_temperature;BMP_pressure;BME280_temperature;BME280_humidity;BME280_pressure;Samples;Min_cycle;Max_cycle;Signal;HPM_P1;HPM_P2
2021/11/15 00:01:59;;;;;;;111.15;80.63;;;;;;;;;;5140353;27;20454;-67
2021/11/15 00:04:26;;;;;;;118.72;79.97;;;;;;;;;;5140276;27;20485;-68
2021/11/15 00:06:52;;;;;;;117.40;82.40;;;;;;;;;;5139963;27;20038;-65
2021/11/15 00:09:18;;;;;;;97.68;68.88;;;;;;;;;;5140475;27;20422;-66
2021/11/15 00:11:45;;;;;;;86.55;58.70;;;;;;;;;;5140161;27;20062;-66
2021/11/15 00:14:11;;;;;;;89.00;59.13;;;;;;;;;;5140157;27;20493;-66
2021/11/15 00:16:37;;;;;;;86.38;58.70;;;;;;;;;;5139897;27;20031;-66
2021/11/15 00:19:04;;;;;;;88.28;59.47;;;;;;;;;;5140269;27;20051;-66
2021/11/15 00:21:30;;;;;;;79.03;55.22;;;256.30;2252.80;;;;;;5140341;27;20018;-66
2021/11/15 00:23:55;;;;;;;84.45;57.83;;;256.30;2252.80;;;;;;5140282;27;20031;-67
2021/11/15 00:26:22;;;;;;;82.00;57.08;;;256.20;2252.80;;;;;;5138113;27;20027;-66
2021/11/15 00:28:48;;;;;;;87.35;60.13;;;256.20;2252.80;;;;;;5140183;27;20035;-67
2021/11/15 00:31:14;;;;;;;101.03;71.82;;;256.20;2252.80;;;;;;5140197;27;20011;-65
2021/11/15 00:33:40;;;;;;;112.95;72.78;;;;;;;;;;5140208;27;20027;-66
2021/11/15 00:36:06;;;;;;;109.80;72.60;;;;;;;;;;5139616;27;20094;-66
2021/11/15 00:38:32;;;;;;;109.50;73.35;;;;;;;;;;5136224;27;20423;-66
2021/11/15 00:40:58;;;;;;;95.00;65.20;;;;;;;;;;5136742;27;20023;-66
2021/11/15 00:43:24;;;;;;;101.82;64.85;;;256.50;2252.80;;;;;;5136752;27;20016;-70
2021/11/15 00:45:50;;;;;;;93.30;65.22;;;;;;;;;;5136410;27;20085;-67
2021/11/15 00:48:16;;;;;;;94.97;64.43;;;256.00;2252.80;;;;;;5136615;27;20054;-69
2021/11/15 00:50:42;;;;;;;84.00;57.47;;;256.00;2252.80;;;;;;5136537;27;20051;-68
2021/11/15 00:53:08;;;;;;;80.93;58.70;;;256.10;2252.80;;;;;;5136486;27;20500;-67
2021/11/15 00:55:34;;;;;;;82.13;58.10;;;256.10;2252.80;;;;;;5136334;27;20023;-67
2021/11/15 00:58:01;;;;;;;82.68;56.45;;;256.00;2252.80;;;;;;5136494;27;20031;-67
2021/11/15 01:00:29;;;;;;;80.90;55.38;;;256.30;2252.80;;;;;;5136727;27;20443;-67
2021/11/15 01:02:57;;;;;;;98.05;64.63;;;256.70;2252.80;;;;;;5136296;27;20545;-67
2021/11/15 01:05:24;;;;;;;90.18;63.05;;;256.90;2252.80;;;;;;5136152;27;20031;-67
2021/11/15 01:07:51;;;;;;;102.53;70.47;;;256.40;2252.80;;;;;;5136354;27;20023;-67
2021/11/15 01:10:19;;;;;;;102.88;72.82;;;256.10;2252.80;;;;;;5136154;27;20048;-67
2021/11/15 01:12:46;;;;;;;111.93;74.05;;;;;;;;;;5136204;27;20031;-66
2021/11/15 01:15:15;;;;;;;88.50;62.38;;;231.30;2252.80;;;;;;5136036;27;20026;-67
2021/11/15 01:17:42;;;;;;;74.38;54.35;;;231.30;2252.80;;;;;;5136113;27;20473;-66
2021/11/15 01:20:11;;;;;;;83.30;54.92;;;231.30;2252.80;;;;;;5135871;27;20565;-67
2021/11/15 01:22:37;;;;;;;77.53;54.00;;;256.00;2252.80;;;;;;5136034;27;20052;-67
2021/11/15 01:25:05;;;;;;;78.00;55.63;;;256.30;2252.80;;;;;;5135910;27;20011;-70
2021/11/15 01:27:31;;;;;;;84.05;56.53;;;256.50;2252.80;;;;;;5135544;27;20046;-67
2021/11/15 01:29:57;;;;;;;86.47;57.72;;;;;;;;;;5135768;27;20031;-67
2021/11/15 01:32:23;;;;;;;81.35;57.50;;;;;;;;;;5135797;27;20038;-66
2021/11/15 01:34:50;;;;;;;84.80;59.17;;;256.20;2252.80;;;;;;5135550;27;20031;-67
2021/11/15 01:37:16;;;;;;;85.65;58.83;;;256.20;2252.80;;;;;;5135657;27;20135;-66
2021/11/15 01:39:42;;;;;;;88.68;59.30;;;256.20;2252.80;;;;;;5135777;27;20111;-66
2021/11/15 01:42:08;;;;;;;87.97;59.20;;;256.20;2252.80;;;;;;5135157;27;20076;-66
2021/11/15 01:44:34;;;;;;;90.78;63.05;;;256.30;2252.80;;;;;;5135636;27;20015;-66
2021/11/15 01:47:01;;;;;;;96.38;64.72;;;256.20;2252.80;;;;;;5135471;27;20050;-66
2021/11/15 01:49:27;;;;;;;101.05;67.53;;;256.20;2252.80;;;;;;5135259;27;20015;-66
2021/11/15 01:51:53;;;;;;;96.57;66.53;;;256.20;2252.80;;;;;;5135388;27;20092;-67
2021/11/15 01:54:19;;;;;;;112.53;72.90;;;256.20;2252.80;;;;;;5114728;28;20024;-69
2021/11/15 01:56:48;;;;;;;84.90;58.65;;;256.20;2252.80;;;;;;5114573;28;20110;-68
2021/11/15 01:59:14;;;;;;;82.47;57.35;;;256.30;2252.80;;;;;;5122023;27;20469;-67
2021/11/15 02:01:40;;;;;;;86.57;59.20;;;256.30;2252.80;;;;;;5135235;27;20072;-68
2021/11/15 02:04:06;;;;;;;86.20;59.00;;;256.40;2252.80;;;;;;5135104;27;20027;-68
2021/11/15 02:06:32;;;;;;;87.18;58.58;;;256.40;2252.80;;;;;;5135151;27;20026;-69
2021/11/15 02:08:58;;;;;;;90.00;62.63;;;;;;;;;;5135219;27;20504;-68
2021/11/15 02:11:24;;;;;;;90.70;61.30;;;;;;;;;;5135065;27;20023;-68
2021/11/15 02:13:51;;;;;;;102.60;66.80;;;;;;;;;;5134891;27;20068;-75
2021/11/15 02:16:17;;;;;;;95.38;63.08;;;;;;;;;;5115875;27;20039;-67
2021/11/15 02:18:43;;;;;;;94.25;62.85;;;256.90;2252.80;;;;;;5113292;28;20027;-67
2021/11/15 02:21:09;;;;;;;144.57;87.35;;;256.80;2252.80;;;;;;5113589;28;20055;-67
2021/11/15 02:23:39;;;;;;;123.03;78.35;;;256.90;2252.80;;;;;;5113332;28;20484;-68
2021/11/15 02:26:07;;;;;;;106.65;68.07;;;281.60;2278.40;;;;;;5112723;28;20035;-68
2021/11/15 02:28:34;;;;;;;91.15;61.50;;;;;;;;;;5113015;28;20132;-67
2021/11/15 02:31:02;;;;;;;103.03;65.95;;;;;;;;;;5113115;28;20539;-68
2021/11/15 02:33:30;;;;;;;104.88;67.13;;;;;;;;;;5113847;28;20047;-68
2021/11/15 02:35:57;;;;;;;91.78;59.88;;;;;;;;;;5114087;28;20024;-68
2021/11/15 02:38:23;;;;;;;112.53;70.65;;;;;;;;;;5113980;28;20023;-70
2021/11/15 02:40:49;;;;;;;121.88;75.65;;;;;;;;;;5114024;28;20015;-67
2021/11/15 02:43:15;;;;;;;109.70;71.47;;;;;;;;;;5113799;28;20024;-70
2021/11/15 02:45:41;;;;;;;103.88;66.38;;;;;;;;;;5114149;28;20377;-68
2021/11/15 02:48:08;;;;;;;101.75;65.82;;;;;;;;;;5113732;28;20485;-69
2021/11/15 02:50:35;;;;;;;133.93;83.20;;;;;;;;;;5113732;28;20019;-69
2021/11/15 02:53:03;;;;;;;126.95;78.35;;;;;;;;;;5113724;28;20106;-68
2021/11/15 02:55:29;;;;;;;87.07;55.67;;;;;;;;;;5127703;27;20031;-66
2021/11/15 02:57:56;;;;;;;80.25;52.03;;;;;;;;;;5132337;27;20381;-68
2021/11/15 03:00:25;;;;;;;89.75;57.28;;;;;;;;;;5132958;27;20049;-68
2021/11/15 03:02:51;;;;;;;82.22;55.70;;;;;;;;;;5132464;27;20491;-68
2021/11/15 03:05:21;;;;;;;102.47;62.05;;;;;;;;;;5133246;27;20023;-68
2021/11/15 03:07:47;;;;;;;83.82;55.33;;;;;;;;;;5133448;27;20377;-68
2021/11/15 03:10:14;;;;;;;77.45;50.13;;;;;;;;;;5133447;27;20050;-69
2021/11/15 03:12:40;;;;;;;98.90;60.40;;;;;;;;;;5133309;27;20033;-71
2021/11/15 03:15:06;;;;;;;84.07;54.33;;;;;;;;;;5133181;27;20113;-69
2021/11/15 03:17:38;;;;;;;95.78;59.63;;;;;;;;;;5124604;27;20019;-67
2021/11/15 03:20:04;;;;;;;87.38;57.85;;;;;;;;;;5133277;27;20042;-68
2021/11/15 03:22:30;;;;;;;90.57;59.53;;;281.90;2278.40;;;;;;5133244;27;20061;-71
2021/11/15 03:24:56;;;;;;;88.60;57.72;;;282.00;2278.40;;;;;;5134108;28;20426;-68
2021/11/15 03:27:21;;;;;;;79.93;54.53;;;282.00;2278.40;;;;;;5133402;28;20086;-67
2021/11/15 03:29:47;;;;;;;93.68;61.15;;;282.00;2278.40;;;;;;5133849;28;20470;-67
2021/11/15 03:32:13;;;;;;;94.72;59.85;;;282.10;2278.40;;;;;;5133705;28;20027;-67
2021/11/15 03:34:40;;;;;;;103.45;65.53;;;;;;;;;;5133842;28;20027;-71
2021/11/15 03:37:05;;;;;;;82.15;55.92;;;282.20;2278.40;;;;;;5133788;28;20058;-66
2021/11/15 03:39:31;;;;;;;79.93;52.67;;;282.20;2278.40;;;;;;5133751;28;20067;-66
2021/11/15 03:41:57;;;;;;;94.95;60.72;;;282.00;2278.40;;;;;;5133651;28;20465;-66
2021/11/15 03:44:23;;;;;;;85.95;56.80;;;281.90;2278.40;;;;;;5133662;28;20445;-67
2021/11/15 03:46:49;;;;;;;104.82;65.68;;;281.90;2278.40;;;;;;5133674;28;20030;-66
2021/11/15 03:49:15;;;;;;;100.53;59.78;;;;;;;;;;5133604;28;20382;-66
2021/11/15 03:51:43;;;;;;;94.05;57.55;;;281.80;2278.40;;;;;;5133518;28;20038;-67
2021/11/15 03:54:09;;;;;;;88.78;57.67;;;281.90;2278.40;;;;;;5133560;28;20080;-65
2021/11/15 03:56:35;;;;;;;83.55;55.05;;;281.90;2278.40;;;;;;5133301;28;20023;-66
2021/11/15 03:59:01;;;;;;;85.95;54.33;;;281.80;2278.40;;;;;;5133594;28;20034;-67
2021/11/15 04:01:31;;;;;;;85.07;53.38;;;281.90;2278.40;;;;;;5133631;27;20102;-66
2021/11/15 04:03:59;;;;;;;98.82;60.40;;;281.90;2278.40;;;;;;5133791;27;20030;-66
2021/11/15 04:06:30;;;;;;;95.22;60.53;;;282.00;2278.40;;;;;;5133536;28;20045;-66
2021/11/15 04:08:59;;;;;;;92.65;59.53;;;281.90;2278.40;;;;;;5133576;28;20101;-65
2021/11/15 04:11:28;;;;;;;92.22;58.70;;;281.90;2278.40;;;;;;5133689;27;20107;-65
2021/11/15 04:13:57;;;;;;;85.90;56.42;;;281.80;2278.40;;;;;;5136159;27;20385;-67
2021/11/15 04:16:23;;;;;;;84.47;55.78;;;281.70;2278.40;;;;;;5136745;27;20028;-66
2021/11/15 04:18:56;;;;;;;79.60;53.05;;;281.70;2278.40;;;;;;5137340;27;20027;-66
2021/11/15 04:21:23;;;;;;;75.70;51.30;;;281.70;2278.40;;;;;;5137213;27;20500;-66
2021/11/15 04:23:49;;;;;;;74.25;50.47;;;281.70;2278.40;;;;;;5137153;27;20019;-66
2021/11/15 04:26:14;;;;;;;74.22;50.72;;;281.70;2278.40;;;;;;5136935;27;20355;-68
2021/11/15 04:28:40;;;;;;;80.40;52.60;;;281.70;2278.40;;;;;;5136851;27;20090;-68
2021/11/15 04:31:06;;;;;;;87.88;58.10;;;281.80;2278.40;;;;;;5137205;27;20030;-68
2021/11/15 04:33:33;;;;;;;85.28;56.00;;;281.70;2278.40;;;;;;5137280;27;20091;-73
2021/11/15 04:35:58;;;;;;;97.13;63.28;;;281.70;2278.40;;;;;;5136983;27;20026;-74
2021/11/15 04:38:24;;;;;;;95.05;58.20;;;281.90;2278.40;;;;;;5136894;27;20031;-67
2021/11/15 04:40:50;;;;;;;96.97;60.50;;;281.80;2278.40;;;;;;5136923;27;20019;-70
2021/11/15 04:43:15;;;;;;;85.05;53.65;;;281.90;2278.40;;;;;;5136758;27;20034;-66
2021/11/15 04:45:41;;;;;;;83.55;51.80;;;282.00;2278.40;;;;;;5136700;27;20142;-67
2021/11/15 04:48:07;;;;;;;84.65;56.63;;;282.10;2278.40;;;;;;5136654;27;20027;-67
2021/11/15 04:50:34;;;;;;;84.30;54.72;;;281.90;2278.40;;;;;;5136654;27;20550;-66
2021/11/15 04:53:00;;;;;;;91.55;58.05;;;281.80;2278.40;;;;;;5136586;27;20035;-66
2021/11/15 04:55:26;;;;;;;73.40;47.72;;;281.70;2278.40;;;;;;5136511;27;20023;-67
2021/11/15 04:57:54;;;;;;;70.82;48.35;;;;;;;;;;5136383;27;20034;-65
2021/11/15 05:00:24;;;;;;;70.80;46.65;;;256.90;2252.80;;;;;;5136106;27;20030;-65
2021/11/15 05:02:50;;;;;;;74.90;49.42;;;256.80;2252.80;;;;;;5136696;27;20027;-66
2021/11/15 05:05:18;;;;;;;79.10;49.63;;;256.90;2252.80;;;;;;5136505;27;20022;-66
2021/11/15 05:07:46;;;;;;;77.60;49.97;;;256.90;2252.80;;;;;;5136448;27;20039;-67
2021/11/15 05:10:12;;;;;;;75.80;48.88;;;281.60;2278.40;;;;;;5136353;27;20459;-67
2021/11/15 05:12:38;;;;;;;76.30;46.97;;;256.90;2252.80;;;;;;5136125;27;20071;-65
2021/11/15 05:15:10;;;;;;;75.95;51.33;;;256.80;2252.80;;;;;;5135973;27;20030;-67
2021/11/15 05:17:36;;;;;;;88.00;53.40;;;281.60;2278.40;;;;;;5136182;27;20060;-67
2021/11/15 05:20:04;;;;;;;87.32;54.70;;;281.70;2278.40;;;;;;5136065;27;20023;-66
2021/11/15 05:22:29;;;;;;;78.93;49.65;;;256.90;2252.80;;;;;;5136009;27;20027;-66
2021/11/15 05:24:55;;;;;;;77.05;48.28;;;256.80;2252.80;;;;;;5135673;27;20023;-66
2021/11/15 05:27:21;;;;;;;73.90;46.83;;;281.60;2278.40;;;;;;5135603;27;20046;-67
2021/11/15 05:29:47;;;;;;;70.30;44.95;;;281.60;2278.40;;;;;;5135714;27;20031;-66
2021/11/15 05:32:14;;;;;;;70.70;45.70;;;256.90;2252.80;;;;;;5135610;27;20043;-67
2021/11/15 05:34:39;;;;;;;112.85;63.70;;;281.70;2278.40;;;;;;5135868;27;20025;-68
2021/11/15 05:37:06;;;;;;;82.15;49.83;;;256.90;2252.80;;;;;;5135804;27;20027;-64
2021/11/15 05:39:32;;;;;;;94.78;56.70;;;281.70;2278.40;;;;;;5135881;27;20385;-66
2021/11/15 05:41:58;;;;;;;88.72;53.28;;;281.60;2278.40;;;;;;5135552;27;20058;-67
2021/11/15 05:44:25;;;;;;;88.85;55.75;;;281.60;2278.40;;;;;;5135531;27;20027;-68
2021/11/15 05:46:52;;;;;;;80.82;50.15;;;256.90;2252.80;;;;;;5135153;27;20023;-70
2021/11/15 05:49:18;;;;;;;72.45;47.40;;;256.90;2252.80;;;;;;5135469;27;20039;-66
2021/11/15 05:51:43;;;;;;;83.00;53.45;;;281.60;2278.40;;;;;;5135410;27;20035;-67
2021/11/15 05:54:09;;;;;;;103.18;63.03;;;256.70;2252.80;;;;;;5135692;27;20520;-69
2021/11/15 05:56:35;;;;;;;132.35;72.55;;;256.90;2252.80;;;;;;5135314;27;20084;-66
2021/11/15 05:59:00;;;;;;;95.43;58.25;;;281.70;2278.40;;;;;;5135291;27;20035;-67
2021/11/15 06:01:26;;;;;;;111.88;64.82;;;281.60;2278.40;;;;;;5134620;27;20019;-65
2021/11/15 06:03:52;;;;;;;77.05;49.10;;;256.80;2252.80;;;;;;5135220;27;20034;-68
2021/11/15 06:06:18;;;;;;;66.65;45.83;;;256.80;2252.80;;;;;;5135234;27;20102;-68
2021/11/15 06:08:44;;;;;;;108.82;70.82;;;256.70;2252.80;;;;;;5135043;27;20023;-68
2021/11/15 06:11:09;;;;;;;81.50;55.63;;;256.60;2252.80;;;;;;5135049;27;20023;-68
2021/11/15 06:13:35;;;;;;;89.72;59.22;;;256.70;2252.80;;;;;;5134898;27;20076;-71
2021/11/15 06:16:01;;;;;;;82.60;54.55;;;256.80;2252.80;;;;;;5134611;27;20057;-68
2021/11/15 06:18:27;;;;;;;86.47;56.55;;;;;;;;;;5134978;27;20385;-68
2021/11/15 06:20:53;;;;;;;110.70;75.97;;;;;;;;;;5134816;27;20110;-68
2021/11/15 06:23:19;;;;;;;90.63;58.10;;;281.60;2278.40;;;;;;5134709;27;20033;-68
2021/11/15 06:25:45;;;;;;;104.80;68.18;;;281.70;2278.40;;;;;;5134234;27;20076;-67
2021/11/15 06:28:11;;;;;;;67.70;44.25;;;256.90;2252.80;;;;;;5134314;27;20047;-68
2021/11/15 06:30:37;;;;;;;72.97;46.90;;;281.60;2278.40;;;;;;5134785;27;20091;-68
2021/11/15 06:33:02;;;;;;;66.10;43.05;;;256.90;2252.80;;;;;;5134505;27;20378;-68
2021/11/15 06:35:29;;;;;;;87.07;52.15;;;256.90;2252.80;;;;;;5133791;27;20023;-69
2021/11/15 06:37:56;;;;;;;81.03;53.08;;;281.60;2278.40;;;;;;5134630;27;20019;-69
2021/11/15 06:40:22;;;;;;;80.18;51.22;;;281.80;2278.40;;;;;;5134379;27;20015;-68
2021/11/15 06:42:48;;;;;;;81.25;49.65;;;281.80;2278.40;;;;;;5134464;27;20147;-69
2021/11/15 06:45:15;;;;;;;75.13;44.88;;;282.10;2278.40;;;;;;5134260;27;20019;-70
2021/11/15 06:47:42;;;;;;;72.40;47.22;;;281.90;2278.40;;;;;;5134179;27;20026;-69
2021/11/15 06:50:09;;;;;;;80.90;50.75;;;281.90;2278.40;;;;;;5134363;27;20038;-69
2021/11/15 06:52:35;;;;;;;74.78;49.63;;;282.10;2278.40;;;;;;5133637;27;20031;-68
2021/11/15 06:55:02;;;;;;;92.82;60.33;;;282.20;2278.40;;;;;;5134328;27;20023;-68
2021/11/15 06:57:29;;;;;;;77.10;48.60;;;;;;;;;;5132782;27;20535;-69
2021/11/15 06:59:55;;;;;;;72.68;47.33;;;;;;;;;;5133059;27;20520;-68
2021/11/15 07:02:22;;;;;;;85.65;55.78;;;;;;;;;;5112261;27;20019;-71
2021/11/15 07:04:48;;;;;;;90.90;56.72;;;281.80;2278.40;;;;;;5128808;27;20402;-69
2021/11/15 07:07:14;;;;;;;88.25;58.90;;;281.80;2278.40;;;;;;5133013;27;20102;-69
2021/11/15 07:09:41;;;;;;;85.57;53.47;;;282.10;2278.40;;;;;;5133533;27;20117;-69
2021/11/15 07:12:07;;;;;;;73.32;46.08;;;282.10;2278.40;;;;;;5133314;27;20027;-69
2021/11/15 07:14:33;;;;;;;76.55;49.20;;;282.00;2278.40;;;;;;5115151;27;20435;-70
2021/11/15 07:16:59;;;;;;;78.88;51.42;;;;;;;;;;5133568;27;20020;-68
2021/11/15 07:19:25;;;;;;;73.13;48.80;;;;;;;;;;5133569;27;20027;-69
2021/11/15 07:21:52;;;;;;;74.18;47.97;;;;;;;;;;5131522;28;20493;-69
2021/11/15 07:24:17;;;;;;;72.55;46.65;;;307.20;2304.00;;;;;;5112820;28;20050;-69
2021/11/15 07:26:43;;;;;;;88.55;58.92;;;307.20;2304.00;;;;;;5112825;28;20044;-69
2021/11/15 07:29:09;;;;;;;65.85;44.03;;;;;;;;;;5113217;28;20381;-68
2021/11/15 07:31:38;;;;;;;58.58;40.03;;;307.50;2304.00;;;;;;5112936;28;20035;-69
2021/11/15 07:34:04;;;;;;;59.15;39.88;;;307.30;2304.00;;;;;;5113233;28;20020;-69
2021/11/15 07:36:32;;;;;;;55.67;39.17;;;307.30;2304.00;;;;;;5113059;28;20377;-69
2021/11/15 07:38:58;;;;;;;65.95;40.25;;;;;;;;;;5113342;28;20161;-68
2021/11/15 07:41:24;;;;;;;68.55;44.75;;;;;;;;;;5113204;28;20024;-69
2021/11/15 07:43:50;;;;;;;82.38;50.13;;;307.40;2304.00;;;;;;5113086;28;20023;-68
2021/11/15 07:46:15;;;;;;;84.13;58.88;;;307.20;2304.00;;;;;;5113307;28;20024;-68
2021/11/15 07:48:42;;;;;;;89.57;51.88;;;;;;;;;;5117249;28;20308;-68
2021/11/15 07:51:07;;;;;;;69.93;45.83;;;282.30;2278.40;;;;;;5117013;28;20058;-68
2021/11/15 07:53:36;;;;;;;82.82;51.55;;;;;;;;;;5116760;28;20537;-68
2021/11/15 07:56:04;;;;;;;92.85;56.75;;;;;;;;;;5098497;28;20035;-69
2021/11/15 07:58:30;;;;;;;85.15;53.05;;;;;;;;;;5116698;28;20088;-68
2021/11/15 08:00:57;;;;;;;80.35;50.17;;;;;;;;;;5116592;28;20024;-69
2021/11/15 08:03:23;;;;;;;69.93;45.58;;;;;;;;;;5116545;28;20028;-68
2021/11/15 08:05:48;;;;;;;72.35;46.90;;;282.30;2278.40;;;;;;5116697;28;20473;-69
2021/11/15 08:08:14;;;;;;;73.47;47.17;;;282.30;2278.40;;;;;;5116595;28;20027;-69
2021/11/15 08:10:40;;;;;;;70.50;47.35;;;282.20;2278.40;;;;;;5116497;28;20019;-68
2021/11/15 08:13:06;;;;;;;79.82;49.90;;;282.20;2278.40;;;;;;5116419;28;20035;-69
2021/11/15 08:15:31;;;;;;;81.65;51.03;;;282.50;2278.40;;;;;;5116290;28;20047;-71
2021/11/15 08:17:59;;;;;;;84.22;55.58;;;282.50;2278.40;;;;;;5116284;28;20086;-69
2021/11/15 08:20:26;;;;;;;79.90;52.70;;;;;;;;;;5116349;28;20031;-68
2021/11/15 08:22:59;;;;;;;79.40;53.97;;;307.80;2278.40;;;;;;5116232;28;20052;-69
2021/11/15 08:25:37;;;;;;;75.45;47.72;;;;;;;;;;5116155;28;20024;-68
2021/11/15 08:28:04;;;;;;;80.45;48.58;;;;;;;;;;5116299;28;20062;-69
2021/11/15 08:30:31;;;;;;;83.85;51.53;;;;;;;;;;5116416;28;20041;-69
2021/11/15 08:32:57;;;;;;;77.25;51.35;;;307.70;2278.40;;;;;;5116037;28;20116;-70
2021/11/15 08:35:25;;;;;;;92.20;60.08;;;307.20;2304.00;;;;;;5116130;28;20027;-69
2021/11/15 08:38:09;;;;;;;86.38;56.00;;;;;;;;;;5116341;28;20537;-69
2021/11/15 08:40:35;;;;;;;80.57;49.90;;;;;;;;;;5115944;28;20077;-68
2021/11/15 08:43:01;;;;;;;82.38;51.30;;;307.60;2304.00;;;;;;5115942;28;20077;-68
2021/11/15 08:45:27;;;;;;;90.60;55.60;;;307.70;2304.00;;;;;;5115880;28;20027;-69
2021/11/15 08:47:53;;;;;;;93.60;55.05;;;307.50;2304.00;;;;;;5115842;28;20030;-69
2021/11/15 08:50:19;;;;;;;101.30;58.17;;;307.20;2304.00;;;;;;5115796;28;20023;-71
2021/11/15 08:52:44;;;;;;;91.50;55.42;;;307.50;2304.00;;;;;;5115621;28;20036;-69
2021/11/15 08:55:10;;;;;;;93.63;56.28;;;307.30;2304.00;;;;;;5115591;28;20019;-68
2021/11/15 08:57:37;;;;;;;106.88;66.38;;;307.60;2304.00;;;;;;5115975;28;20476;-69
2021/11/15 09:00:03;;;;;;;106.15;68.55;;;307.80;2304.00;;;;;;5114779;28;20020;-69
2021/11/15 09:02:29;;;;;;;130.25;79.57;;;307.50;2304.00;;;;;;5115534;28;20115;-69
2021/11/15 09:04:55;;;;;;;109.70;66.90;;;307.60;2304.00;;;;;;5115581;28;20098;-69
2021/11/15 09:07:21;;;;;;;119.68;70.43;;;307.80;2304.00;;;;;;5115405;28;20063;-70
2021/11/15 09:09:47;;;;;;;119.88;71.20;;;307.70;2304.00;;;;;;5115505;28;20054;-69
2021/11/15 09:12:15;;;;;;;170.10;95.90;;;307.60;2304.00;;;;;;5115337;28;20473;-69
2021/11/15 09:14:41;;;;;;;147.52;84.90;;;307.60;2304.00;;;;;;5114971;28;20027;-69
2021/11/15 09:17:07;;;;;;;133.15;75.68;;;307.80;2304.00;;;;;;5115483;28;20116;-69
2021/11/15 09:19:33;;;;;;;132.82;77.38;;;307.80;2304.00;;;;;;5115246;28;20019;-70
2021/11/15 09:22:00;;;;;;;133.82;72.55;;;308.10;2304.00;;;;;;5114894;28;20473;-69
2021/11/15 09:24:26;;;;;;;120.45;67.30;;;308.10;2304.00;;;;;;5115125;28;20099;-69
2021/11/15 09:26:53;;;;;;;117.03;66.85;;;308.00;2304.00;;;;;;5115218;28;20546;-69
2021/11/15 09:29:21;;;;;;;135.77;79.90;;;;;;;;;;5114913;28;20023;-71
2021/11/15 09:31:48;;;;;;;131.75;76.75;;;;;;;;;;5114843;28;20062;-68
2021/11/15 09:34:15;;;;;;;129.77;77.18;;;;;;;;;;5114924;28;20366;-69
2021/11/15 09:36:41;;;;;;;129.88;76.85;;;332.80;2252.80;;;;;;5114873;28;20047;-70
2021/11/15 09:39:08;;;;;;;121.57;75.40;;;332.80;2278.40;;;;;;5114831;28;20393;-69
2021/11/15 09:41:34;;;;;;;152.00;78.43;;;;;;;;;;5114676;28;20031;-72
2021/11/15 09:44:01;;;;;;;124.93;73.82;;;;;;;;;;5114621;28;20452;-68
2021/11/15 09:46:28;;;;;;;120.80;71.40;;;;;;;;;;5114534;28;20039;-68
2021/11/15 09:49:00;;;;;;;115.05;70.35;;;;;;;;;;5114884;28;20420;-68
2021/11/15 09:51:26;;;;;;;126.93;73.07;;;332.90;2252.80;;;;;;5114915;28;20450;-72
2021/11/15 09:53:53;;;;;;;123.45;71.90;;;308.10;2278.40;;;;;;5114295;28;20031;-69
2021/11/15 09:56:20;;;;;;;125.65;74.38;;;;;;;;;;5114600;28;20030;-71
2021/11/15 09:58:46;;;;;;;115.10;69.88;;;;;;;;;;5114263;28;20038;-69
2021/11/15 10:01:13;;;;;;;155.98;100.00;;;308.10;2278.40;;;;;;5114388;28;20035;-69
2021/11/15 10:03:39;;;;;;;124.63;70.03;;;332.90;2252.80;;;;;;5114465;28;20047;-69
2021/11/15 10:06:06;;;;;;;119.60;69.43;;;;;;;;;;5114231;28;20030;-69
2021/11/15 10:09:01;;;;;;;115.22;65.43;;;;;;;;;;5114218;28;20095;-68
2021/11/15 10:11:37;;;;;;;129.23;71.55;;;;;;;;;;5051241;28;20037;-71
2021/11/15 10:14:04;;;;;;;122.18;71.15;;;;;;;;;;5051352;28;20043;-69
2021/11/15 10:16:33;;;;;;;126.95;75.95;;;;;;;;;;5051334;28;20083;-70
2021/11/15 10:19:01;;;;;;;128.20;71.60;;;;;;;;;;5051570;28;20021;-69
2021/11/15 10:21:32;;;;;;;118.07;70.25;;;;;;;;;;5051287;28;20036;-68
2021/11/15 10:24:05;;;;;;;123.20;72.97;;;;;;;;;;5051184;28;20468;-69
2021/11/15 10:26:38;;;;;;;125.28;72.20;;;;;;;;;;5052327;28;20083;-69
2021/11/15 10:29:04;;;;;;;141.60;93.90;;;;;;;;;;5071306;28;20051;-68
2021/11/15 10:31:33;;;;;;;150.80;88.88;;;;;;;;;;5071066;28;20028;-69
2021/11/15 10:33:59;;;;;;;147.75;89.20;;;;;;;;;;5070965;28;20033;-69
2021/11/15 10:36:47;;;;;;;139.25;85.43;;;333.70;2124.80;;;;;;5070850;28;20036;-68
2021/11/15 10:39:13;;;;;;;142.70;78.75;;;333.70;2124.80;;;;;;5070836;28;20032;-71
2021/11/15 10:41:39;;;;;;;130.55;78.70;;;333.60;2150.40;;;;;;5070845;28;20147;-69
2021/11/15 10:44:09;;;;;;;136.15;76.13;;;333.50;2150.40;;;;;;5070842;28;20088;-68
2021/11/15 10:46:37;;;;;;;122.68;71.15;;;333.70;2124.80;;;;;;5070825;28;20021;-68
2021/11/15 10:49:06;;;;;;;118.68;70.50;;;358.40;2124.80;;;;;;5113274;28;20115;-69
2021/11/15 10:51:56;;;;;;;112.95;70.45;;;333.60;2099.20;;;;;;5113399;28;20020;-69
2021/11/15 10:54:35;;;;;;;106.60;64.78;;;333.70;2124.80;;;;;;5113401;28;20032;-69
2021/11/15 10:57:27;;;;;;;105.00;63.30;;;358.40;2073.60;;;;;;5113195;28;20027;-69
2021/11/15 11:00:04;;;;;;;;;;;333.70;2073.60;;;;;;5134058;27;20031;-70
2021/11/15 11:02:31;;;;;;;100.22;60.17;;;333.70;2099.20;;;;;;5133545;27;19904;-71
2021/11/15 11:05:18;;;;;;;104.30;74.60;;;333.70;2073.60;;;;;;5133768;27;20030;-70
2021/11/15 11:07:47;;;;;;;94.93;56.10;;;333.70;2073.60;;;;;;5133635;27;20023;-69
2021/11/15 11:10:17;;;;;;;101.57;62.72;;;358.40;2022.40;;;;;;5133575;27;20062;-69
2021/11/15 11:12:59;;;;;;;98.53;61.85;;;358.40;2048.00;;;;;;5133361;27;20484;-69
2021/11/15 11:15:43;;;;;;;113.25;75.03;;;333.70;2048.00;;;;;;5133459;27;20106;-69
2021/11/15 11:18:13;;;;;;;99.30;60.63;;;;;;;;;;5133390;27;20019;-69
2021/11/15 11:25:49;;;;;;;121.70;80.35;;;;;;;;;;5133771;27;20034;-69
2021/11/15 11:28:32;;;;;;;133.50;87.70;;;;;;;;;;5133597;28;20107;-70
2021/11/15 11:30:59;;;;;;;136.45;90.03;;;;;;;;;;5114517;28;20037;-69
2021/11/15 11:33:28;;;;;;;120.80;83.25;;;;;;;;;;5133253;28;20042;-69
2021/11/15 11:35:54;;;;;;;124.05;83.72;;;;;;;;;;5133279;28;20437;-69
2021/11/15 11:38:20;;;;;;;129.48;86.22;;;;;;;;;;5115008;28;20026;-69
2021/11/15 11:40:47;;;;;;;133.70;88.85;;;;;;;;;;5133317;28;20023;-69
2021/11/15 11:43:16;;;;;;;119.03;83.93;;;;;;;;;;5133272;28;20519;-69
2021/11/15 11:45:43;;;;;;;128.50;85.55;;;;;;;;;;5133015;28;20027;-70
2021/11/15 11:48:09;;;;;;;125.82;89.10;;;;;;;;;;5133146;28;20053;-69
2021/11/15 11:50:37;;;;;;;122.72;79.57;;;794.00;742.40;;;;;;5133339;28;20020;-69
2021/11/15 11:53:08;;;;;;;121.75;86.38;;;793.70;742.40;;;;;;5133139;28;20023;-70
2021/11/15 11:55:35;;;;;;;107.82;78.13;;;;;;;;;;5133153;28;20455;-69
2021/11/15 11:58:19;;;;;;;117.97;82.53;;;;;;;;;;5133019;28;20393;-69
2021/11/15 12:00:49;;;;;;;118.93;82.35;;;;;;;;;;5132941;28;20027;-69
2021/11/15 12:03:15;;;;;;;120.47;85.97;;;743.30;742.40;;;;;;5133126;28;20019;-69
2021/11/15 12:05:41;;;;;;;121.50;85.80;;;794.10;716.80;;;;;;5133225;28;20015;-70
2021/11/15 12:08:10;;;;;;;114.03;82.93;;;768.90;716.80;;;;;;5133331;28;20102;-70
2021/11/15 12:10:43;;;;;;;110.95;80.32;;;;;;;;;;5132813;28;20059;-69
2021/11/15 12:13:17;;;;;;;112.28;81.65;;;;;;;;;;5132716;28;20369;-69
2021/11/15 12:15:56;;;;;;;105.97;76.72;;;;;;;;;;5132888;28;20389;-70
2021/11/15 12:18:24;;;;;;;114.25;78.28;;;;;;;;;;5132707;28;20023;-69
2021/11/15 12:21:02;;;;;;;120.05;84.15;;;819.80;640.00;;;;;;5132861;28;20016;-69
2021/11/15 12:23:51;;;;;;;102.70;75.03;;;844.80;665.60;;;;;;5132777;28;20373;-70
2021/11/15 12:26:24;;;;;;;91.13;63.90;;;820.00;640.00;;;;;;5132862;28;20027;-70
2021/11/15 12:28:53;;;;;;;79.80;57.40;;;;;;;;;;5132898;28;20120;-72
2021/11/15 12:31:45;;;;;;;90.22;63.28;;;;;;;;;;5132694;28;20416;-69
2021/11/15 12:34:11;;;;;;;91.53;67.07;;;717.30;768.00;;;;;;5130510;27;20047;-70
2021/11/15 12:36:40;;;;;;;113.18;74.57;;;;;;;;;;5136360;27;20180;-70
2021/11/15 12:39:14;;;;;;;106.63;74.18;;;;;;;;;;5136420;27;20040;-69
2021/11/15 12:41:41;;;;;;;101.15;68.00;;;;;;;;;;5136407;27;20020;-69
2021/11/15 12:44:14;;;;;;;93.55;65.28;;;;;;;;;;5136150;27;20107;-70
2021/11/15 12:46:47;;;;;;;93.75;64.57;;;;;;;;;;5135898;27;20481;-69
2021/11/15 12:49:19;;;;;;;98.85;65.60;;;;;;;;;;5117329;27;20115;-69
2021/11/15 12:52:04;;;;;;;96.18;67.13;;;;;;;;;;5135979;27;20022;-69